M I D A S
Marine Information and Data Acquisition System
Tripno 746 of the Zeeleeuw from 2004-07-12 06:20:44 to 2004-07-12 15:40:41
Back to CruiseResearch ActivitiesStationsMapUnderway DataData graphs

EquipmentUnitsComment
TimeDGPSUTC
LatitudeDGPSDM.mWGS84
LongitudeDGPSDM.mWGS84
HeadingGyrodeg 
SOGDGPSknotsSpeed over ground
COGDGPSdegCourse over ground
DepthEcho soundermeters200 kHz
Missing or incorrect values are displayed as -999
Navigation data collected by the RV Zeeleeuw from 2004-07-12 06:20:44 to 2004-07-12 15:40:41
Time Latitude Longitude Heading SOG COG Depth
2004-07-12 06:21:47 51°13.601 2°56.069 116 2.3 292 -999
2004-07-12 06:22:47 51°13.626 2°55.985 121.6 4.3 297 -999
2004-07-12 06:23:48 51°13.663 2°55.877 121.5 4.8 299 -999
2004-07-12 06:24:47 51°13.69 2°55.779 111.4 3.7 289 -999
2004-07-12 06:25:47 51°13.701 2°55.747 68.9 1.9 63 14.8
2004-07-12 06:26:47 51°13.694 2°55.746 40.2 0.4 199 -999
2004-07-12 06:27:47 51°13.738 2°55.726 329.5 4.6 326 11.1
2004-07-12 06:28:49 51°13.83 2°55.633 334.7 7.1 331 11.6
2004-07-12 06:29:48 51°13.942 2°55.547 341.7 7.9 338 11.9
2004-07-12 06:30:48 51°14.066 2°55.462 341.3 8.4 335 12.6
2004-07-12 06:31:48 51°14.202 2°55.342 328.9 10.6 322 13.2
2004-07-12 06:32:48 51°14.331 2°55.124 316.7 11.9 312 12.5
2004-07-12 06:33:46 51°14.489 2°54.935 328.9 13 327 11.6
2004-07-12 06:34:49 51°14.681 2°54.738 329.3 13.1 327 11.1
2004-07-12 06:35:49 51°14.865 2°54.552 330 13 328 11
2004-07-12 06:36:47 51°15.041 2°54.371 329.8 13.1 327 10.2
2004-07-12 06:37:48 51°15.229 2°54.182 330.1 13.2 327 10.6
2004-07-12 06:38:48 51°15.412 2°53.994 332.4 13 329 11.4
2004-07-12 06:39:47 51°15.593 2°53.816 333.1 13.1 330 12.3
2004-07-12 06:40:54 51°15.805 2°53.626 336.3 13 333 12.9
2004-07-12 06:41:57 51°16.008 2°53.457 337.3 13.3 333 13.5
2004-07-12 06:42:56 51°16.199 2°53.305 337.3 13.1 334 14.2
2004-07-12 06:43:57 51°16.397 2°53.149 338.5 12.9 335 14
2004-07-12 06:44:58 51°16.593 2°53.003 338.6 12.7 335 13.4
2004-07-12 06:45:58 51°16.786 2°52.868 341.1 12.6 337 11.6
2004-07-12 06:46:58 51°16.981 2°52.733 340.2 12.8 337 11.5
2004-07-12 06:47:58 51°17.181 2°52.604 344.5 13.1 340 11.4
2004-07-12 06:48:58 51°17.386 2°52.501 352.7 13.1 349 12.1
2004-07-12 06:49:57 51°17.599 2°52.458 2.9 13.2 359 11.9
2004-07-12 06:50:57 51°17.817 2°52.498 16.4 13.3 14 12
2004-07-12 06:51:57 51°18.033 2°52.605 22 13.7 21 12.5
2004-07-12 06:52:58 51°18.236 2°52.776 33.2 13.8 31 12.5
2004-07-12 06:53:58 51°18.415 2°53.001 46.8 13.8 45 12.8
2004-07-12 06:54:57 51°18.577 2°53.254 47.1 13.9 44 13.1
2004-07-12 06:55:56 51°18.738 2°53.511 50 13.5 47 13.1
2004-07-12 06:56:58 51°18.895 2°53.797 52.1 13.9 49 13.4
2004-07-12 06:57:56 51°19.038 2°54.067 55.9 13.9 56 13.8
2004-07-12 06:58:59 51°19.167 2°54.394 61 13.9 57 13.8
2004-07-12 06:59:59 51°19.287 2°54.711 62.2 13.9 60 13.7
2004-07-12 07:01:00 51°19.41 2°55.029 61.5 13.9 61 13.9
2004-07-12 07:01:59 51°19.526 2°55.342 62.4 14 60 13.8
2004-07-12 07:02:59 51°19.645 2°55.663 64.1 14.1 62 13.8
2004-07-12 07:03:59 51°19.759 2°55.982 63.7 14.1 62 14.1
2004-07-12 07:04:59 51°19.869 2°56.312 64.7 14.1 62 13.6
2004-07-12 07:05:59 51°19.98 2°56.638 65.3 14.2 60 13.8
2004-07-12 07:06:58 51°20.091 2°56.963 63.3 14 60 13.5
2004-07-12 07:07:59 51°20.206 2°57.297 64 14.1 62 13.7
2004-07-12 07:08:58 51°20.317 2°57.619 63.7 14.1 64 13.3
2004-07-12 07:09:58 51°20.429 2°57.947 63.6 13.8 62 13.4
2004-07-12 07:10:59 51°20.542 2°58.279 63.9 13.8 60 13.7
2004-07-12 07:11:59 51°20.656 2°58.606 63.7 14.1 60 13.5
2004-07-12 07:12:59 51°20.764 2°58.938 64.9 13.9 61 13.3
2004-07-12 07:14:00 51°20.878 2°59.271 63.6 14.3 61 13.2
2004-07-12 07:14:59 51°20.99 2°59.592 64.4 14 61 13.4
2004-07-12 07:16:00 51°21.102 2°59.931 64 14.1 60 13
2004-07-12 07:16:59 51°21.213 3°0.257 62.9 14.2 61 13.3
2004-07-12 07:18:00 51°21.329 3°0.599 64.4 14.5 62 13.2
2004-07-12 07:18:59 51°21.438 3°0.929 64.1 14.2 63 13.4
2004-07-12 07:19:59 51°21.548 3°1.265 64.5 14.2 60 13.2
2004-07-12 07:20:58 51°21.666 3°1.584 54.3 14.1 52 13.5
2004-07-12 07:21:59 51°21.838 3°1.844 38.5 14 36 13.5
2004-07-12 07:22:58 51°22.02 3°2.067 39.4 13.8 39 13.4
2004-07-12 07:23:58 51°22.203 3°2.297 40.3 13.9 39 13.4
2004-07-12 07:24:58 51°22.384 3°2.526 39.4 13.9 38 13.6
2004-07-12 07:25:58 51°22.565 3°2.758 40.7 14 38 13.3
2004-07-12 07:26:59 51°22.747 3°2.998 41.3 13.9 41 12.5
2004-07-12 07:27:59 51°22.927 3°3.234 40.1 14.2 39 12.2
2004-07-12 07:28:58 51°23.106 3°3.473 40.4 14.1 39 14
2004-07-12 07:29:58 51°23.284 3°3.715 40.5 13.8 39 14.4
2004-07-12 07:30:59 51°23.466 3°3.963 40.8 14 43 14.3
2004-07-12 07:31:59 51°23.646 3°4.203 39.8 14.2 39 14.7
2004-07-12 07:32:58 51°23.823 3°4.439 37.9 13.8 38 15.1
2004-07-12 07:33:58 51°24.013 3°4.652 33.2 13.9 33 17
2004-07-12 07:35:05 51°24.23 3°4.862 29.7 13.7 29 21
2004-07-12 07:36:05 51°24.426 3°5.048 29.5 13.6 31 17
2004-07-12 07:37:05 51°24.625 3°5.227 27.4 13.7 26 15
2004-07-12 07:38:04 51°24.823 3°5.39 27.1 13.6 26 14.9
2004-07-12 07:39:04 51°25.024 3°5.554 26.8 13.6 28 13.8
2004-07-12 07:40:05 51°25.228 3°5.721 26.8 13.5 27 13.3
2004-07-12 07:41:05 51°25.423 3°5.896 32 13.5 33 13.1
2004-07-12 07:42:05 51°25.603 3°6.112 41.6 13.7 45 12.3
2004-07-12 07:43:05 51°25.734 3°6.42 62.4 14.2 58 11.9
2004-07-12 07:44:05 51°25.856 3°6.744 61.9 14.2 58 12.1
2004-07-12 07:45:04 51°25.971 3°7.066 63.1 14 61 11.9
2004-07-12 07:46:05 51°26.09 3°7.4 62.5 14.1 60 10.1
2004-07-12 07:47:05 51°26.207 3°7.729 62 14.1 59 11.4
2004-07-12 07:48:04 51°26.325 3°8.052 61.7 13.9 60 11.9
2004-07-12 07:49:05 51°26.406 3°8.261 49.5 6.1 56 12.4
2004-07-12 07:50:04 51°26.436 3°8.35 41.3 2 86 12.8
2004-07-12 07:51:05 51°26.428 3°8.387 56.5 1.4 113 12.7
2004-07-12 07:52:04 51°26.42 3°8.421 70.4 1.5 108 12.7
2004-07-12 07:53:05 51°26.413 3°8.46 76.5 1.5 105 12.8
2004-07-12 07:54:05 51°26.406 3°8.5 70.8 1.6 95 12.6
2004-07-12 07:55:05 51°26.413 3°8.559 48.2 3.1 67 12.8
2004-07-12 07:56:05 51°26.444 3°8.641 45.8 3.8 61 13
2004-07-12 07:57:05 51°26.475 3°8.726 50.9 3.7 62 12.7
2004-07-12 07:58:05 51°26.498 3°8.823 65.5 3.9 71 13.3
2004-07-12 07:59:04 51°26.516 3°8.924 69.1 3.9 81 12.7
2004-07-12 08:00:05 51°26.531 3°9.014 59.4 3.2 72 12.9
2004-07-12 08:01:04 51°26.547 3°9.084 51.5 2.8 72 13
2004-07-12 08:02:05 51°26.563 3°9.152 46.1 2.7 67 13
2004-07-12 08:03:05 51°26.581 3°9.215 43.8 2.4 68 12.3
2004-07-12 08:04:05 51°26.601 3°9.277 39.8 2.7 57 12.8
2004-07-12 08:05:05 51°26.625 3°9.341 39.9 2.8 60 12.7
2004-07-12 08:06:05 51°26.647 3°9.407 39.2 2.9 57 12.4
2004-07-12 08:07:04 51°26.67 3°9.47 36.5 2.7 51 12.6
2004-07-12 08:08:05 51°26.697 3°9.534 36.1 2.8 58 12.4
2004-07-12 08:09:05 51°26.723 3°9.595 35.1 2.7 55 12.5
2004-07-12 08:10:05 51°26.751 3°9.658 37.7 2.9 58 12.4
2004-07-12 08:11:05 51°26.776 3°9.722 39 2.9 61 12.6
2004-07-12 08:12:05 51°26.799 3°9.787 41.5 3 61 12.6
2004-07-12 08:13:05 51°26.825 3°9.853 41.4 3.1 64 12.4
2004-07-12 08:14:05 51°26.849 3°9.919 40.2 2.9 59 12.6
2004-07-12 08:15:05 51°26.876 3°9.982 39.4 2.4 55 11.7
2004-07-12 08:16:05 51°26.901 3°10.045 39 2.8 56 12.4
2004-07-12 08:17:05 51°26.93 3°10.111 38.1 3.1 51 12.3
2004-07-12 08:18:05 51°26.959 3°10.176 38.1 2.9 58 12.5
2004-07-12 08:19:04 51°26.984 3°10.243 42 3.1 60 12
2004-07-12 08:20:05 51°27.011 3°10.312 40.8 3 58 12.5
2004-07-12 08:21:04 51°27.036 3°10.376 38.6 2.9 57 12.5
2004-07-12 08:22:04 51°27.065 3°10.44 38.1 2.8 51 12.2
2004-07-12 08:23:05 51°27.094 3°10.506 37.3 2.6 57 12
2004-07-12 08:24:05 51°27.119 3°10.566 37.2 3 56 12.3
2004-07-12 08:25:04 51°27.146 3°10.628 38.4 2.9 57 12.1
2004-07-12 08:26:05 51°27.175 3°10.692 37.3 2.9 53 11.7
2004-07-12 08:27:05 51°27.203 3°10.755 37.7 2.8 51 11.9
2004-07-12 08:28:05 51°27.231 3°10.819 38.5 3 55 12
2004-07-12 08:29:05 51°27.259 3°10.885 40.2 3 60 11.9
2004-07-12 08:30:05 51°27.282 3°10.95 45 2.9 62 11.7
2004-07-12 08:31:05 51°27.307 3°11.026 55.6 3.6 70 12.3
2004-07-12 08:32:04 51°27.321 3°11.12 80.1 3.9 84 11.7
2004-07-12 08:33:05 51°27.316 3°11.234 105.8 4.2 101 11.7
2004-07-12 08:34:04 51°27.304 3°11.327 104.2 3.2 102 11.4
2004-07-12 08:35:04 51°27.297 3°11.404 98.7 3 95 11.6
2004-07-12 08:36:04 51°27.266 3°11.488 157.2 3.9 151 11.3
2004-07-12 08:37:05 51°27.21 3°11.483 220.3 2.9 205 11.2
2004-07-12 08:38:05 51°27.174 3°11.443 238.5 2.6 223 11.3
2004-07-12 08:39:04 51°27.151 3°11.393 251.8 2.3 237 11.1
2004-07-12 08:40:05 51°27.128 3°11.34 252.1 2.4 242 11.1
2004-07-12 08:41:09 51°27.104 3°11.282 249 2.6 240 11.5
2004-07-12 08:42:08 51°27.081 3°11.226 251.9 2.7 236 11.6
2004-07-12 08:43:08 51°27.06 3°11.163 255.4 2.7 249 11.6
2004-07-12 08:44:08 51°27.041 3°11.1 256.2 2.7 243 11.7
2004-07-12 08:45:08 51°27.023 3°11.033 255.6 2.8 252 11.4
2004-07-12 08:46:09 51°27.003 3°10.964 255.2 2.9 242 11.6
2004-07-12 08:47:09 51°26.984 3°10.899 255.9 2.7 245 11.6
2004-07-12 08:48:09 51°26.965 3°10.837 254.3 2.6 253 11.9
2004-07-12 08:49:08 51°26.945 3°10.776 254.4 2.7 249 11.7
2004-07-12 08:50:08 51°26.927 3°10.713 254 2.5 232 11.6
2004-07-12 08:51:09 51°26.907 3°10.65 254.2 2.6 246 11.5
2004-07-12 08:52:10 51°26.886 3°10.584 253.6 2.7 242 11.9
2004-07-12 08:53:09 51°26.867 3°10.519 253.7 2.9 241 12
2004-07-12 08:54:09 51°26.847 3°10.456 253.1 2.8 241 12.4
2004-07-12 08:55:09 51°26.829 3°10.388 255.6 2.8 248 12.1
2004-07-12 08:56:15 51°26.809 3°10.313 255.4 2.9 249 12.2
2004-07-12 08:57:15 51°26.79 3°10.249 255.9 2.6 252 12.2
2004-07-12 08:58:15 51°26.772 3°10.184 255.1 2.6 246 12.2
2004-07-12 08:59:16 51°26.752 3°10.118 254.4 2.8 236 12.1
2004-07-12 09:00:14 51°26.732 3°10.055 254.9 2.7 247 12.2
2004-07-12 09:01:16 51°26.712 3°9.989 254.2 2.5 248 12
2004-07-12 09:02:15 51°26.692 3°9.927 254.3 2.7 234 12.4
2004-07-12 09:03:16 51°26.671 3°9.863 253.1 2.7 240 12.7
2004-07-12 09:04:16 51°26.651 3°9.798 254.7 2.7 253 12.4
2004-07-12 09:05:15 51°26.635 3°9.73 257 2.7 252 12.3
2004-07-12 09:06:16 51°26.615 3°9.665 254.2 2.6 242 12.3
2004-07-12 09:07:15 51°26.595 3°9.602 254.6 2.7 243 12.8
2004-07-12 09:08:15 51°26.574 3°9.537 254.4 2.8 240 12.5
2004-07-12 09:09:16 51°26.553 3°9.473 253.1 2.6 247 12.8
2004-07-12 09:10:16 51°26.533 3°9.407 254.5 3 235 12.1
2004-07-12 09:11:16 51°26.513 3°9.344 253.3 2.7 248 11.9
2004-07-12 09:12:16 51°26.498 3°9.278 262 2.6 258 12.1
2004-07-12 09:13:16 51°26.491 3°9.209 268.4 2.5 264 12.1
2004-07-12 09:14:16 51°26.486 3°9.142 271.3 2.7 242 12.1
2004-07-12 09:15:15 51°26.482 3°9.084 272.3 2 250 12.9
2004-07-12 09:16:14 51°26.48 3°9.057 276.6 0.6 256 12.7
2004-07-12 09:17:16 51°26.475 3°9.055 266.3 0.4 170 12.5
2004-07-12 09:18:15 51°26.469 3°9.063 258.4 0.9 145 12.3
2004-07-12 09:19:16 51°26.465 3°9.071 256.9 0.5 141 12.2
2004-07-12 09:20:15 51°26.462 3°9.079 258.7 0.3 105 12.2
2004-07-12 09:21:15 51°26.459 3°9.089 258.4 0.4 97 11.6
2004-07-12 09:22:16 51°26.454 3°9.1 255.3 0.7 133 12.3
2004-07-12 09:23:16 51°26.446 3°9.1 244.9 1.2 235 11.8
2004-07-12 09:24:16 51°26.406 3°9.092 180.5 3.3 158 12.3
2004-07-12 09:25:16 51°26.343 3°9.213 135.9 9.2 135 11.7
2004-07-12 09:26:16 51°26.221 3°9.476 126.9 13.1 117 11.1
2004-07-12 09:27:16 51°26.121 3°9.796 120.2 14.3 111 10.6
2004-07-12 09:28:12 51°26.024 3°10.095 122.6 13.6 117 10.1
2004-07-12 09:29:12 51°25.917 3°10.414 126 13.6 118 9.9
2004-07-12 09:30:12 51°25.809 3°10.731 119.6 12.7 120 9.8
2004-07-12 09:31:14 51°25.697 3°11.061 124.3 12.9 120 9.8
2004-07-12 09:32:18 51°25.585 3°11.407 123.9 14 120 10.7
2004-07-12 09:33:18 51°25.491 3°11.745 117 13.6 115 11.3
2004-07-12 09:34:18 51°25.394 3°12.077 120.8 14.3 110 11.6
2004-07-12 09:35:18 51°25.306 3°12.412 116.9 13.4 108 12.4
2004-07-12 09:36:24 51°25.216 3°12.791 120.7 13.9 110 12.9
2004-07-12 09:37:24 51°25.164 3°13.15 105.5 13.6 100 13.5
2004-07-12 09:38:28 51°25.145 3°13.506 85.5 9.7 82 14.1
2004-07-12 09:39:26 51°25.184 3°13.634 63.1 2.8 64 14.2
2004-07-12 09:40:26 51°25.196 3°13.696 70.7 2.3 76 14
2004-07-12 09:41:28 51°25.216 3°13.771 60.6 3.4 64 14.1
2004-07-12 09:42:26 51°25.245 3°13.844 51.3 3.3 49 13.5
2004-07-12 09:43:27 51°25.276 3°13.914 53.6 3.2 61 13.1
2004-07-12 09:44:27 51°25.303 3°13.984 61.2 3 62 13
2004-07-12 09:45:28 51°25.324 3°14.062 69.6 3.2 71 13
2004-07-12 09:46:27 51°25.342 3°14.136 70.5 3.1 72 12.6
2004-07-12 09:47:28 51°25.36 3°14.216 72.3 3.1 75 12.7
2004-07-12 09:48:28 51°25.378 3°14.293 71.5 3 70 12.1
2004-07-12 09:49:27 51°25.394 3°14.368 73.7 3 73 12.2
2004-07-12 09:50:28 51°25.411 3°14.445 72.9 3.1 72 11.9
2004-07-12 09:51:26 51°25.425 3°14.519 76.9 2.9 73 11.7
2004-07-12 09:52:28 51°25.438 3°14.597 78.8 2.9 77 11.8
2004-07-12 09:53:27 51°25.45 3°14.669 80.7 3 77 11.8
2004-07-12 09:54:28 51°25.461 3°14.742 82.1 2.8 76 11.7
2004-07-12 09:55:28 51°25.468 3°14.811 86.9 2.6 81 11.5
2004-07-12 09:56:26 51°25.472 3°14.877 94.1 2.6 89 11.6
2004-07-12 09:57:28 51°25.47 3°14.952 105.7 2.9 92 11.4
2004-07-12 09:58:27 51°25.459 3°15.027 113 3 100 11.7
2004-07-12 09:59:28 51°25.447 3°15.105 113.7 2.9 108 11.7
2004-07-12 10:00:27 51°25.435 3°15.181 112.5 3 108 11.6
2004-07-12 10:01:28 51°25.423 3°15.261 109.5 3.1 96 11.8
2004-07-12 10:02:28 51°25.415 3°15.342 107.8 3.2 101 11.7
2004-07-12 10:03:26 51°25.408 3°15.42 105.7 3 97 11.9
2004-07-12 10:04:26 51°25.402 3°15.498 105.8 3 96 12
2004-07-12 10:05:26 51°25.395 3°15.576 104.2 2.9 98 12.3
2004-07-12 10:06:28 51°25.389 3°15.656 103 3.1 96 12.2
2004-07-12 10:07:28 51°25.383 3°15.738 103.5 3.1 97 12.3
2004-07-12 10:08:27 51°25.376 3°15.818 106.3 3 108 12.5
2004-07-12 10:09:27 51°25.366 3°15.9 111.4 3.2 102 12.1
2004-07-12 10:10:28 51°25.353 3°15.979 111.2 3 103 12.7
2004-07-12 10:11:26 51°25.344 3°16.057 110.1 3.1 101 12.6
2004-07-12 10:12:27 51°25.333 3°16.139 112 3 106 12.7
2004-07-12 10:13:28 51°25.318 3°16.22 116.7 3.2 111 12.9
2004-07-12 10:14:26 51°25.303 3°16.299 117.5 3.2 107 13
2004-07-12 10:15:28 51°25.285 3°16.381 118.5 3.1 110 13.2
2004-07-12 10:16:28 51°25.267 3°16.457 117.7 3.1 104 13.2
2004-07-12 10:17:28 51°25.251 3°16.531 117.4 3 106 13.3
2004-07-12 10:18:28 51°25.237 3°16.605 114.5 2.9 105 13.3
2004-07-12 10:19:26 51°25.224 3°16.677 111.7 2.8 105 13.6
2004-07-12 10:20:27 51°25.218 3°16.744 102.3 2.3 100 13.6
2004-07-12 10:21:27 51°25.212 3°16.809 111.2 3.1 103 13.5
2004-07-12 10:22:30 51°25.173 3°16.86 179.1 2.9 173 13.8
2004-07-12 10:23:30 51°25.133 3°16.83 234.5 2.9 231 14.7
2004-07-12 10:24:30 51°25.114 3°16.756 262 3.2 253 15.2
2004-07-12 10:25:30 51°25.106 3°16.669 270.6 3.3 266 15.3
2004-07-12 10:26:30 51°25.114 3°16.581 287.7 3.4 283 14.8
2004-07-12 10:27:30 51°25.133 3°16.502 292.7 3.3 289 15.4
2004-07-12 10:28:30 51°25.146 3°16.42 280 3.1 278 14.7
2004-07-12 10:29:30 51°25.148 3°16.336 275.7 3.2 274 15.1
2004-07-12 10:30:30 51°25.147 3°16.251 273.3 3.2 272 15
2004-07-12 10:31:30 51°25.148 3°16.17 275.1 3 277 15.2
2004-07-12 10:32:30 51°25.149 3°16.086 275.9 3.1 271 15.4
2004-07-12 10:33:29 51°25.151 3°16.001 275.8 3.2 275 15.2
2004-07-12 10:34:30 51°25.155 3°15.911 276.4 3.3 274 15.2
2004-07-12 10:35:30 51°25.159 3°15.83 275.1 2.7 275 15.2
2004-07-12 10:36:30 51°25.162 3°15.76 275.9 2.5 272 15.2
2004-07-12 10:37:29 51°25.167 3°15.696 276.6 2.5 278 14.9
2004-07-12 10:38:29 51°25.17 3°15.632 274.1 2.3 272 14.7
2004-07-12 10:39:29 51°25.17 3°15.573 272 2.2 272 14.8
2004-07-12 10:40:30 51°25.17 3°15.511 271.3 2.2 268 15
2004-07-12 10:41:30 51°25.169 3°15.451 267.3 2.3 268 14.8
2004-07-12 10:42:30 51°25.166 3°15.389 267.2 2.4 265 14.9
2004-07-12 10:43:30 51°25.161 3°15.328 267 2.4 267 14.7
2004-07-12 10:44:29 51°25.158 3°15.264 269.5 2.4 268 15
2004-07-12 10:45:30 51°25.156 3°15.199 268.2 2.5 267 15
2004-07-12 10:46:30 51°25.153 3°15.132 265.9 2.5 262 14.8
2004-07-12 10:47:30 51°25.147 3°15.065 264.9 2.5 265 15
2004-07-12 10:48:30 51°25.14 3°14.997 264.8 2.7 258 14.9
2004-07-12 10:49:30 51°25.134 3°14.928 266.5 2.6 258 15
2004-07-12 10:50:30 51°25.127 3°14.86 265.2 2.6 261 14.9
2004-07-12 10:51:29 51°25.119 3°14.795 264.2 2.6 262 15.1
2004-07-12 10:52:30 51°25.11 3°14.726 264.6 2.6 259 15
2004-07-12 10:53:30 51°25.103 3°14.658 264.9 2.6 261 14.8
2004-07-12 10:54:30 51°25.094 3°14.592 265.6 2.5 257 15.2
2004-07-12 10:55:29 51°25.088 3°14.53 265.6 2.3 258 15
2004-07-12 10:56:30 51°25.084 3°14.464 267.4 2.5 263 14.9
2004-07-12 10:57:30 51°25.079 3°14.397 267.9 2.5 258 14.9
2004-07-12 10:58:30 51°25.08 3°14.334 278.3 2.3 276 14.9
2004-07-12 10:59:30 51°25.086 3°14.273 281 2.5 280 14.7
2004-07-12 11:00:30 51°25.092 3°14.213 282.1 2 283 14.6
2004-07-12 11:01:30 51°25.098 3°14.175 282.9 1.3 282 14.5
2004-07-12 11:02:30 51°25.1 3°14.152 281.4 0.8 280 14.5
2004-07-12 11:03:29 51°25.101 3°14.141 276.1 0.3 230 14.5
2004-07-12 11:04:30 51°25.098 3°14.137 264.5 0.1 265 14.3
2004-07-12 11:05:30 51°25.093 3°14.139 250 0.5 150 14.4
2004-07-12 11:06:30 51°25.087 3°14.144 242.7 0.2 146 14.5
2004-07-12 11:07:30 51°25.081 3°14.15 241.7 0.7 145 14.7
2004-07-12 11:08:30 51°25.061 3°14.133 213 2.8 197 14.6
2004-07-12 11:09:30 51°24.917 3°14.139 178.5 12.5 176 16.5
2004-07-12 11:10:30 51°24.701 3°14.143 186.8 13 185 19.8
2004-07-12 11:11:30 51°24.482 3°14.186 173.6 13.2 171 19.7
2004-07-12 11:12:30 51°24.275 3°14.31 157.3 13.5 152 15.8
2004-07-12 11:13:30 51°24.108 3°14.53 135.7 12.8 128 12.7
2004-07-12 11:14:30 51°24.029 3°14.855 109.9 13.7 106 11.8
2004-07-12 11:15:30 51°23.99 3°15.2 102.7 13.1 98 13.7
2004-07-12 11:16:30 51°23.95 3°15.543 103.5 13 101 13.7
2004-07-12 11:17:30 51°23.901 3°15.887 106.8 13.1 106 13.6
2004-07-12 11:18:30 51°23.864 3°16.236 101.1 13.5 97 13.1
2004-07-12 11:19:30 51°23.838 3°16.586 102.3 13.3 97 12.7
2004-07-12 11:20:30 51°23.813 3°16.931 102.5 13.4 97 12.6
2004-07-12 11:21:30 51°23.783 3°17.275 100.1 13 95 12.8
2004-07-12 11:22:30 51°23.761 3°17.622 98.7 12.8 95 13.1
2004-07-12 11:23:30 51°23.739 3°17.971 99.9 12.9 94 13
2004-07-12 11:24:30 51°23.716 3°18.317 100.3 13.2 98 12.9
2004-07-12 11:25:30 51°23.696 3°18.648 98.8 10.8 96 12.7
2004-07-12 11:26:30 51°23.661 3°18.83 107.9 5.1 104 12.7
2004-07-12 11:27:30 51°23.664 3°18.901 67 1.8 76 12.9
2004-07-12 11:28:30 51°23.675 3°18.936 59.1 1.4 59 12.8
2004-07-12 11:29:30 51°23.696 3°19.003 71.8 3.4 70 13.2
2004-07-12 11:30:30 51°23.713 3°19.093 79.8 3.6 76 13.3
2004-07-12 11:31:30 51°23.72 3°19.186 89.7 3.4 87 13.4
2004-07-12 11:32:30 51°23.715 3°19.274 100.8 3.2 101 13.3
2004-07-12 11:33:29 51°23.709 3°19.351 94.7 2.8 100 13.2
2004-07-12 11:34:30 51°23.703 3°19.424 97.9 2.6 99 13.2
2004-07-12 11:35:30 51°23.694 3°19.492 100.9 2.6 110 13.3
2004-07-12 11:36:30 51°23.685 3°19.558 102.3 2.5 103 13.1
2004-07-12 11:37:30 51°23.675 3°19.622 104.3 2.5 100 13.1
2004-07-12 11:38:30 51°23.664 3°19.687 102.4 2.5 98 13.2
2004-07-12 11:39:30 51°23.655 3°19.752 101.8 2.5 99 13
2004-07-12 11:40:31 51°23.648 3°19.818 98.7 2.5 103 13.1
2004-07-12 11:41:30 51°23.641 3°19.882 97.2 2.5 101 13.1
2004-07-12 11:42:30 51°23.637 3°19.947 94.5 2.5 91 12.9
2004-07-12 11:43:30 51°23.634 3°20.012 93 2.4 86 13
2004-07-12 11:44:30 51°23.634 3°20.076 87.4 2.4 84 13.1
2004-07-12 11:45:30 51°23.638 3°20.141 85.1 2.5 88 13
2004-07-12 11:46:30 51°23.641 3°20.205 85.6 2.4 82 13.1
2004-07-12 11:47:36 51°23.643 3°20.275 87.6 2.5 92 13.2
2004-07-12 11:48:36 51°23.645 3°20.339 88.5 2.4 85 13.2
2004-07-12 11:49:35 51°23.645 3°20.401 90.7 2.4 97 13.4
2004-07-12 11:50:35 51°23.644 3°20.464 88.5 2.4 86 13.2
2004-07-12 11:51:36 51°23.645 3°20.528 88.2 2.4 95 13.4
2004-07-12 11:52:35 51°23.644 3°20.591 90.5 2.5 100 13.3
2004-07-12 11:53:36 51°23.641 3°20.656 91.5 2.4 97 13.3
2004-07-12 11:54:36 51°23.638 3°20.721 91.7 2.5 91 13.3
2004-07-12 11:55:36 51°23.636 3°20.787 91.2 2.5 94 13.3
2004-07-12 11:56:36 51°23.635 3°20.855 89.9 2.5 92 13.4
2004-07-12 11:57:34 51°23.635 3°20.919 90.7 2.5 93 13.4
2004-07-12 11:58:36 51°23.633 3°20.99 91.3 2.7 93 13.4
2004-07-12 11:59:36 51°23.631 3°21.061 90.7 2.7 92 13.4
2004-07-12 12:00:36 51°23.628 3°21.134 90.9 2.7 92 13.3
2004-07-12 12:01:36 51°23.626 3°21.206 88.9 2.7 88 13.5
2004-07-12 12:02:36 51°23.625 3°21.276 90.7 2.6 96 13.5
2004-07-12 12:03:35 51°23.62 3°21.343 91.1 2.6 99 13.5
2004-07-12 12:04:35 51°23.616 3°21.409 92.9 2.5 100 13.5
2004-07-12 12:05:36 51°23.604 3°21.472 103.8 2.5 113 13.5
2004-07-12 12:06:36 51°23.569 3°21.561 124.1 5.1 130 13.2
2004-07-12 12:07:36 51°23.486 3°21.622 170.1 5 178 12.4
2004-07-12 12:08:36 51°23.422 3°21.603 192.3 3.4 199 11.7
2004-07-12 12:09:35 51°23.377 3°21.563 211.1 3.6 216 11.5
2004-07-12 12:10:36 51°23.342 3°21.476 258.3 4.2 250 11.2
2004-07-12 12:11:36 51°23.322 3°21.369 262.3 3.9 254 10.8
2004-07-12 12:12:35 51°23.306 3°21.277 268.7 3.5 257 10.8
2004-07-12 12:13:36 51°23.298 3°21.189 281.8 3.1 267 10.5
2004-07-12 12:14:34 51°23.299 3°21.11 287.8 3 271 10.6
2004-07-12 12:15:36 51°23.301 3°21.025 287.6 3.1 272 10.5
2004-07-12 12:16:35 51°23.305 3°20.945 296.8 3 280 10.5
2004-07-12 12:17:36 51°23.316 3°20.865 304.7 2.9 284 10.8
2004-07-12 12:18:36 51°23.328 3°20.791 307 2.8 288 10.8
2004-07-12 12:19:36 51°23.342 3°20.715 303.1 3.2 284 10.9
2004-07-12 12:20:36 51°23.353 3°20.63 299 3.4 282 10.9
2004-07-12 12:21:36 51°23.366 3°20.543 301.9 3.3 285 11
2004-07-12 12:22:34 51°23.379 3°20.458 299.9 3.4 283 11.1
2004-07-12 12:23:36 51°23.392 3°20.367 299.4 3.3 281 11.3
2004-07-12 12:24:36 51°23.402 3°20.279 297.1 3.3 281 11.2
2004-07-12 12:25:36 51°23.41 3°20.196 294.3 3.1 276 11.2
2004-07-12 12:26:36 51°23.416 3°20.113 293.9 3.1 276 11.3
2004-07-12 12:27:36 51°23.423 3°20.036 295.4 2.8 278 11.2
2004-07-12 12:28:36 51°23.426 3°19.965 293.2 2.6 272 11.1
2004-07-12 12:29:36 51°23.43 3°19.897 297.5 2.6 276 11
2004-07-12 12:30:36 51°23.438 3°19.825 303.3 2.9 282 11.1
2004-07-12 12:31:36 51°23.45 3°19.751 306.2 2.9 284 11.1
2004-07-12 12:32:36 51°23.461 3°19.677 304.4 2.7 284 11.6
2004-07-12 12:33:36 51°23.471 3°19.602 302.6 3 283 11.4
2004-07-12 12:34:35 51°23.483 3°19.526 305.8 3 286 11.7
2004-07-12 12:35:36 51°23.496 3°19.448 306.7 3.1 287 11.4
2004-07-12 12:36:36 51°23.508 3°19.371 304.4 3 284 11.3
2004-07-12 12:37:35 51°23.52 3°19.292 302 3.3 281 11.3
2004-07-12 12:38:36 51°23.531 3°19.209 301 3 283 11.4
2004-07-12 12:39:36 51°23.541 3°19.128 302.7 3.1 281 11.5
2004-07-12 12:40:36 51°23.554 3°19.047 304.6 3.1 285 11.6
2004-07-12 12:41:36 51°23.567 3°18.965 303.4 3.2 284 11.6
2004-07-12 12:42:36 51°23.58 3°18.883 305.4 3.1 287 11.6
2004-07-12 12:43:36 51°23.598 3°18.807 314 3.1 295 11.5
2004-07-12 12:44:36 51°23.62 3°18.734 316.4 3 297 11.6
2004-07-12 12:45:36 51°23.643 3°18.661 319.7 3.1 298 11.7
2004-07-12 12:46:36 51°23.677 3°18.586 337 4.1 319 11.7
2004-07-12 12:47:36 51°23.741 3°18.596 50.3 4.1 41 12.2
2004-07-12 12:48:36 51°23.736 3°18.698 120.5 4.3 129 12.4
2004-07-12 12:49:36 51°23.689 3°18.732 150.6 2.8 173 12
2004-07-12 12:50:36 51°23.648 3°18.719 173.9 2.5 200 11.5
2004-07-12 12:51:36 51°23.614 3°18.686 193.2 2.3 221 11.5
2004-07-12 12:52:36 51°23.59 3°18.644 209.3 2.2 234 11.2
2004-07-12 12:53:36 51°23.572 3°18.599 219.5 2 240 11.3
2004-07-12 12:54:36 51°23.556 3°18.556 227.2 1.8 240 11.2
2004-07-12 12:55:36 51°23.541 3°18.508 235.4 3 242 11.1
2004-07-12 12:56:36 51°23.529 3°18.307 274.1 11.4 268 11.1
2004-07-12 12:57:36 51°23.499 3°17.942 260 14.5 258 10.5
2004-07-12 12:58:36 51°23.438 3°17.564 257.1 14.7 255 9.7
2004-07-12 12:59:35 51°23.379 3°17.19 258.4 14.7 256 9.3
2004-07-12 13:00:36 51°23.32 3°16.804 259.7 14.5 256 8.7
2004-07-12 13:01:36 51°23.267 3°16.421 262.9 14.8 260 8.6
2004-07-12 13:02:36 51°23.23 3°16.034 264.2 14.8 262 8.1
2004-07-12 13:03:36 51°23.19 3°15.648 258.1 14.5 253 8.5
2004-07-12 13:04:36 51°23.13 3°15.267 257.9 14.8 257 8.7
2004-07-12 13:05:36 51°23.074 3°14.882 259.4 14.9 256 9.1
2004-07-12 13:06:36 51°23.016 3°14.499 258.3 14.9 256 9.9
2004-07-12 13:07:36 51°22.957 3°14.118 259 14.7 257 10.4
2004-07-12 13:08:36 51°22.898 3°13.741 259 14.5 257 10.9
2004-07-12 13:09:42 51°22.833 3°13.328 258.8 14.5 254 11.6
2004-07-12 13:10:42 51°22.775 3°12.951 259.8 14.8 256 12.3
2004-07-12 13:11:42 51°22.715 3°12.57 258 14.7 255 13.1
2004-07-12 13:12:46 51°22.661 3°12.161 262 14.9 258 13.8
2004-07-12 13:13:50 51°22.608 3°11.749 261.5 14.9 258 14.3
2004-07-12 13:14:50 51°22.553 3°11.363 258.9 14.9 258 15.2
2004-07-12 13:15:50 51°22.493 3°10.977 258.3 15 258 15.4
2004-07-12 13:16:50 51°22.43 3°10.593 259.1 14.9 257 18.2
2004-07-12 13:17:50 51°22.372 3°10.214 259.5 14.4 255 14.6
2004-07-12 13:18:50 51°22.312 3°9.837 259.6 14.7 255 13.5
2004-07-12 13:19:50 51°22.25 3°9.462 259.8 14.6 255 13
2004-07-12 13:20:50 51°22.187 3°9.086 259 14.7 254 12.3
2004-07-12 13:21:50 51°22.126 3°8.712 259.5 14.5 257 12
2004-07-12 13:22:50 51°22.067 3°8.338 259.6 14.6 256 11.4
2004-07-12 13:23:50 51°21.999 3°7.968 255.4 14.5 254 11.4
2004-07-12 13:24:50 51°21.922 3°7.602 252.7 14.4 247 11.4
2004-07-12 13:25:50 51°21.837 3°7.241 252.5 14.5 247 11.2
2004-07-12 13:26:50 51°21.742 3°6.889 248.2 14.4 245 11
2004-07-12 13:27:50 51°21.652 3°6.555 250.7 11.2 249 10.5
2004-07-12 13:28:48 51°21.635 3°6.374 281 4.1 268 10.8
2004-07-12 13:29:50 51°21.629 3°6.319 263.7 1.6 252 10.7
2004-07-12 13:30:48 51°21.617 3°6.259 255.7 3.2 252 10.8
2004-07-12 13:31:50 51°21.594 3°6.166 251.6 3.9 246 10.7
2004-07-12 13:32:50 51°21.569 3°6.065 254.3 4.1 249 10.6
2004-07-12 13:33:50 51°21.548 3°5.96 259.8 4 254 10.5
2004-07-12 13:34:50 51°21.531 3°5.866 261.9 3.5 253 10.5
2004-07-12 13:35:50 51°21.516 3°5.782 260.2 3.2 252 10.4
2004-07-12 13:36:50 51°21.5 3°5.702 258.1 3.2 249 10.6
2004-07-12 13:37:49 51°21.483 3°5.627 258.6 3 250 10.3
2004-07-12 13:38:50 51°21.466 3°5.553 258.3 2.8 247 10.2
2004-07-12 13:39:50 51°21.451 3°5.48 258.7 2.9 251 10.3
2004-07-12 13:40:50 51°21.435 3°5.408 258 2.9 248 10.4
2004-07-12 13:41:50 51°21.42 3°5.334 259.5 3 247 10.5
2004-07-12 13:42:49 51°21.405 3°5.262 259.1 2.9 253 10.2
2004-07-12 13:43:50 51°21.388 3°5.187 258.2 3 257 10.2
2004-07-12 13:44:50 51°21.372 3°5.109 258.2 3.2 253 10.4
2004-07-12 13:45:50 51°21.356 3°5.028 264.9 3.2 252 10.2
2004-07-12 13:46:50 51°21.347 3°4.947 278.1 3 265 10.2
2004-07-12 13:47:50 51°21.342 3°4.868 281.3 3 265 10.4
2004-07-12 13:48:50 51°21.337 3°4.79 279.1 3 265 10.4
2004-07-12 13:49:50 51°21.331 3°4.712 276.9 3 261 10.4
2004-07-12 13:50:50 51°21.324 3°4.633 272.6 3 263 10.3
2004-07-12 13:51:50 51°21.314 3°4.555 269.5 3 259 10.3
2004-07-12 13:52:50 51°21.303 3°4.479 266.2 2.9 258 10.3
2004-07-12 13:53:50 51°21.291 3°4.404 267 3 256 10.4
2004-07-12 13:54:50 51°21.278 3°4.329 267.6 3 250 10
2004-07-12 13:55:50 51°21.266 3°4.253 266 3 253 10.3
2004-07-12 13:56:50 51°21.252 3°4.176 264.1 3 252 10.1
2004-07-12 13:57:50 51°21.237 3°4.101 261.4 2.9 252 10.2
2004-07-12 13:58:50 51°21.221 3°4.027 260.2 2.9 251 10.5
2004-07-12 13:59:50 51°21.203 3°3.954 255.9 3 248 10.2
2004-07-12 14:00:50 51°21.184 3°3.88 251.2 3.1 246 10.2
2004-07-12 14:01:50 51°21.162 3°3.803 248.5 3.2 244 10.1
2004-07-12 14:02:50 51°21.137 3°3.729 244.6 3.2 239 10
2004-07-12 14:03:50 51°21.114 3°3.654 248.4 3.1 245 10
2004-07-12 14:04:49 51°21.094 3°3.579 256.5 3.1 247 10.2
2004-07-12 14:05:50 51°21.077 3°3.501 263.3 3 255 10.1
2004-07-12 14:06:50 51°21.063 3°3.402 271.9 5.2 262 10.1
2004-07-12 14:07:50 51°21.066 3°3.239 288.7 6.7 276 10.1
2004-07-12 14:08:50 51°21.099 3°3.066 305.9 6.5 294 10.2
2004-07-12 14:09:50 51°21.139 3°2.955 327.5 3.9 306 10.3
2004-07-12 14:10:50 51°21.167 3°2.894 341.4 2.3 309 10.4
2004-07-12 14:11:50 51°21.187 3°2.856 357.7 1.9 324 10.6
2004-07-12 14:12:50 51°21.212 3°2.861 58.8 1.6 49 10.6
2004-07-12 14:13:56 51°21.188 3°2.913 140.3 3.6 164 10.5
2004-07-12 14:14:56 51°21.119 3°2.881 200.8 4.3 209 10.4
2004-07-12 14:15:56 51°21.062 3°2.811 217.6 4.3 220 10.3
2004-07-12 14:16:56 51°21.012 3°2.73 228.4 4.2 231 10.2
2004-07-12 14:17:56 51°20.972 3°2.643 239.8 3.9 237 10.1
2004-07-12 14:18:56 51°20.939 3°2.558 243.3 3.6 237 10.1
2004-07-12 14:19:56 51°20.908 3°2.478 241.6 3.5 238 10
2004-07-12 14:20:56 51°20.876 3°2.4 241.4 3.5 242 10
2004-07-12 14:21:56 51°20.844 3°2.324 240.4 3.5 234 10.1
2004-07-12 14:22:56 51°20.811 3°2.249 240.9 3.4 234 9.7
2004-07-12 14:23:56 51°20.78 3°2.178 241 3.1 233 9.8
2004-07-12 14:24:56 51°20.749 3°2.109 241.4 3.1 236 9.7
2004-07-12 14:25:56 51°20.72 3°2.042 242.2 3 235 9.7
2004-07-12 14:26:58 51°20.689 3°1.974 240.8 3 237 9.6
2004-07-12 14:27:56 51°20.661 3°1.911 243.1 3 236 9.6
2004-07-12 14:28:58 51°20.634 3°1.845 246.7 2.9 241 9.4
2004-07-12 14:29:56 51°20.61 3°1.786 250.3 2.7 245 9.4
2004-07-12 14:30:58 51°20.587 3°1.722 253.5 2.7 246 9.3
2004-07-12 14:31:56 51°20.566 3°1.658 256.9 2.7 255 9.4
2004-07-12 14:32:58 51°20.544 3°1.59 258.7 2.8 243 9.4
2004-07-12 14:34:04 51°20.522 3°1.516 259.8 2.7 250 9.1
2004-07-12 14:35:04 51°20.501 3°1.448 261 2.9 240 9.1
2004-07-12 14:36:04 51°20.482 3°1.378 262.2 2.9 250 9.2
2004-07-12 14:37:04 51°20.462 3°1.306 261.5 2.9 251 9
2004-07-12 14:38:04 51°20.442 3°1.235 261.6 3 243 9.2
2004-07-12 14:39:04 51°20.421 3°1.165 263.4 2.8 250 9.3
2004-07-12 14:40:04 51°20.401 3°1.097 260.1 2.8 244 9.3
2004-07-12 14:41:04 51°20.379 3°1.033 257.5 2.7 238 9.5
2004-07-12 14:42:04 51°20.357 3°0.973 257.2 2.6 243 9.2
2004-07-12 14:43:04 51°20.336 3°0.914 256.8 2.5 241 9.1
2004-07-12 14:44:04 51°20.315 3°0.858 256.4 2.4 239 9.1
2004-07-12 14:45:04 51°20.294 3°0.801 258.1 2.4 238 9.2
2004-07-12 14:46:04 51°20.274 3°0.745 259.2 2.4 251 9.2
2004-07-12 14:47:04 51°20.256 3°0.672 271.9 3.3 254 9.2
2004-07-12 14:48:04 51°20.243 3°0.582 271 3.7 256 9.2
2004-07-12 14:49:04 51°20.224 3°0.482 265.9 4 253 9.3
2004-07-12 14:50:04 51°20.216 3°0.347 288 5.7 276 9.3
2004-07-12 14:51:04 51°20.256 3°0.213 327.5 5.5 313 9.5
2004-07-12 14:52:04 51°20.331 3°0.165 13.3 4.6 3 9.6
2004-07-12 14:53:04 51°20.392 3°0.226 55.3 4.6 51 9.9
2004-07-12 14:54:04 51°20.405 3°0.317 87.5 2.7 89 9.7
2004-07-12 14:55:04 51°20.388 3°0.373 102.7 2.2 129 9.7
2004-07-12 14:56:04 51°20.365 3°0.408 111.2 1.7 137 9.5
2004-07-12 14:57:04 51°20.338 3°0.429 122.3 1.7 156 9.7
2004-07-12 14:58:04 51°20.308 3°0.441 135.3 2 172 9.5
2004-07-12 14:59:04 51°20.274 3°0.441 148.5 2.1 185 9.5
2004-07-12 15:00:10 51°20.236 3°0.431 162.7 2.2 194 9.3
2004-07-12 15:01:10 51°20.201 3°0.413 178 2.2 198 9.3
2004-07-12 15:02:09 51°20.167 3°0.388 191.3 2.2 210 9.1
2004-07-12 15:03:10 51°20.135 3°0.358 200.5 2.2 213 9.1
2004-07-12 15:04:10 51°20.097 3°0.318 213.9 4.4 212 9
2004-07-12 15:05:10 51°20.03 3°0.155 250.5 11.2 246 8.9
2004-07-12 15:06:10 51°19.942 2°59.824 252.3 14.3 249 8.6
2004-07-12 15:07:10 51°19.848 2°59.471 249 14.6 246 8.5
2004-07-12 15:08:10 51°19.739 2°59.123 247 14.7 241 8.7
2004-07-12 15:09:08 51°19.641 2°58.779 249 14.7 246 8.6
2004-07-12 15:10:10 51°19.533 2°58.414 251.1 14.7 246 8.7
2004-07-12 15:11:10 51°19.434 2°58.054 253.2 14.8 250 8.8
2004-07-12 15:12:10 51°19.339 2°57.691 254.9 14.6 248 9.1
2004-07-12 15:13:10 51°19.246 2°57.327 253.4 14.7 243 9
2004-07-12 15:14:10 51°19.132 2°56.976 246.5 14.7 236 9.2
2004-07-12 15:15:10 51°18.997 2°56.644 239.6 14.6 233 9.4
2004-07-12 15:16:10 51°18.852 2°56.325 237.3 14.5 228 9.5
2004-07-12 15:17:10 51°18.691 2°56.026 231.5 15.1 229 9.3
2004-07-12 15:18:07 51°18.54 2°55.742 232.5 14.6 231 9.5
2004-07-12 15:19:10 51°18.371 2°55.436 232.8 14.5 229 9
2004-07-12 15:20:10 51°18.215 2°55.135 234.3 14.6 232 8.9
2004-07-12 15:21:10 51°18.058 2°54.838 233.8 14.5 229 8.5
2004-07-12 15:22:10 51°17.898 2°54.547 232.5 14.5 229 8.4
2004-07-12 15:23:10 51°17.743 2°54.249 232.7 14.7 229 8.3
2004-07-12 15:24:10 51°17.576 2°53.972 230 14.8 226 8
2004-07-12 15:25:10 51°17.414 2°53.691 233.5 13.9 228 8.2
2004-07-12 15:26:10 51°17.246 2°53.42 226.9 14.8 220 8.2
2004-07-12 15:27:09 51°17.048 2°53.24 206.1 13.2 201 7.9
2004-07-12 15:28:10 51°16.819 2°53.241 168.3 14.5 166 10.1
2004-07-12 15:29:09 51°16.593 2°53.327 164.7 13.9 164 11.5
2004-07-12 15:30:10 51°16.362 2°53.414 158.6 14.3 161 11.6
2004-07-12 15:31:10 51°16.139 2°53.509 163.7 13.9 165 11.4
2004-07-12 15:32:10 51°15.919 2°53.613 165.4 13.8 168 11
2004-07-12 15:33:10 51°15.702 2°53.727 159.1 13.7 159 10.5
2004-07-12 15:34:10 51°15.483 2°53.845 159.9 14 161 9.7
2004-07-12 15:35:10 51°15.272 2°53.982 156.8 13.6 159 9
2004-07-12 15:36:10 51°15.068 2°54.135 148.7 13.1 149 8.4
2004-07-12 15:37:10 51°14.88 2°54.328 148.5 13.7 148 8.7
2004-07-12 15:38:10 51°14.702 2°54.551 137.1 13.6 138 9.2
2004-07-12 15:39:10 51°14.528 2°54.761 142.1 12.9 141 9.8
2004-07-12 15:40:10 51°14.386 2°55.013 125.9 12.9 124 10.4